This is the latest recevied weather packets stored in our database for station/object KO6HRZ. If no packets are shown the sender has not sent any weather packets the latest 10 day(s).
| Time | Temp. | Humidity | Pressure | Rain* | Wind** | Luminosity | Snow |
|---|---|---|---|---|---|---|---|
| 1777771667 | 19.44° C | 68% | 1010.6 hPa | 0 mm | - | 113 W/m² | - |
| 1777771066 | 20° C | 66% | 1010.7 hPa | 0 mm | - | 145 W/m² | - |
| 1777770465 | 20° C | 65% | 1010.7 hPa | 0 mm | - | 138 W/m² | - |
| 1777769860 | 20.56° C | 62% | 1010.7 hPa | 0 mm | - | 141 W/m² | - |
| 1777769259 | 20.56° C | 62% | 1010.5 hPa | 0 mm | - | 179 W/m² | - |
| 1777768654 | 20.56° C | 62% | 1010.6 hPa | 0 mm | - | 181 W/m² | - |
| 1777768054 | 21.11° C | 61% | 1010.6 hPa | 0 mm | - | 185 W/m² | - |
| 1777767452 | 20.56° C | 61% | 1010.5 hPa | 0 mm | - | 221 W/m² | - |
| 1777766847 | 21.67° C | 59% | 1010.6 hPa | 0 mm | - | 193 W/m² | - |
| 1777766247 | 21.67° C | 58% | 1010.7 hPa | 0 mm | - | 253 W/m² | - |
| 1777765647 | 21.11° C | 59% | 1011.1 hPa | 0 mm | - | 272 W/m² | - |
| 1777765046 | 21.11° C | 63% | 1010.8 hPa | 0 mm | - | 265 W/m² | - |
| 1777764444 | 21.11° C | 61% | 1010.9 hPa | 0 mm | - | 267 W/m² | - |
| 1777763844 | 21.67° C | 62% | 1011 hPa | 0 mm | - | 259 W/m² | - |
| 1777763241 | 22.22° C | 60% | 1011.1 hPa | 0 mm | - | 313 W/m² | - |
| 1777762640 | 22.78° C | 60% | 1011.3 hPa | 0 mm | - | 424 W/m² | - |
| 1777762039 | 22.78° C | 59% | 1011.4 hPa | 0 mm | - | 471 W/m² | - |
| 1777761434 | 23.33° C | 55% | 1011.5 hPa | 0 mm | - | 397 W/m² | - |
| 1777760829 | 23.33° C | 57% | 1011.7 hPa | 0 mm | - | 480 W/m² | - |
| 1777760228 | 25° C | 56% | 1011.7 hPa | 0 mm | - | 638 W/m² | - |
| 1777759626 | 24.44° C | 55% | 1012 hPa | 0 mm | - | 715 W/m² | - |
| 1777759026 | 23.33° C | 58% | 1012.2 hPa | 0 mm | - | 644 W/m² | - |
| 1777758426 | 23.89° C | 58% | 1012.2 hPa | 0 mm | - | 712 W/m² | - |
| 1777757826 | 23.33° C | 59% | 1012.4 hPa | 0 mm | - | 773 W/m² | - |
| 1777757222 | 22.78° C | 61% | 1012.2 hPa | 0 mm | - | 799 W/m² | - |
* Rain latest hour (hover to see other rain measurements)
** Current wind speed in m/s (hover to see current wind gust speed)